This is the latest recevied weather packets stored in our database for station/object IU4KCH-20. If no packets are shown the sender has not sent any weather packets the latest 10 day(s).
| Time | Temp. | Humidity | Pressure | Rain* | Wind** | Luminosity | Snow |
|---|---|---|---|---|---|---|---|
| 1777775342 | 13.33° C | 57% | 1016.8 hPa | - | - | - | - |
| 1777774442 | 13.89° C | 59% | 1016.7 hPa | - | - | - | - |
| 1777773542 | 13.89° C | 56% | 1016.8 hPa | - | - | - | - |
| 1777772642 | 15.56° C | 53% | 1016.7 hPa | - | - | - | - |
| 1777768135 | 16.11° C | 50% | 1017 hPa | - | - | - | - |
| 1777767234 | 16.11° C | 50% | 1017.3 hPa | - | - | - | - |
| 1777766333 | 16.11° C | 50% | 1017.3 hPa | - | - | - | - |
| 1777765433 | 16.11° C | 50% | 1017.4 hPa | - | - | - | - |
| 1777763631 | 17.22° C | 46% | 1017.6 hPa | - | - | - | - |
| 1777762730 | 17.22° C | 47% | 1017.6 hPa | - | - | - | - |
| 1777761829 | 17.78° C | 45% | 1017.6 hPa | - | - | - | - |
| 1777760928 | 17.22° C | 46% | 1017.7 hPa | - | - | - | - |
| 1777759127 | 17.78° C | 45% | 1017.6 hPa | - | - | - | - |
| 1777758226 | 17.78° C | 47% | 1017.7 hPa | - | - | - | - |
| 1777757325 | 18.33° C | 45% | 1017.6 hPa | - | - | - | - |
| 1777756424 | 18.33° C | 44% | 1017.7 hPa | - | - | - | - |
| 1777755523 | 18.89° C | 43% | 1017.7 hPa | - | - | - | - |
| 1777754622 | 19.44° C | 41% | 1017.6 hPa | - | - | - | - |
| 1777753722 | 20° C | 38% | 1017.8 hPa | - | - | - | - |
| 1777752821 | 20.56° C | 37% | 1017.8 hPa | - | - | - | - |
| 1777751920 | 20° C | 39% | 1017.8 hPa | - | - | - | - |
| 1777751019 | 20.56° C | 39% | 1017.7 hPa | - | - | - | - |
| 1777750118 | 21.11° C | 38% | 1017.7 hPa | - | - | - | - |
| 1777749218 | 21.11° C | 36% | 1017.6 hPa | - | - | - | - |
| 1777748317 | 21.67° C | 39% | 1017.4 hPa | - | - | - | - |
* Rain since midnight (hover to see other rain measurements)
** Current wind speed in m/s (hover to see current wind gust speed)